Time;durP1;ratioP1;P1;durP2;ratioP2;P2;SDS_P1;SDS_P2;PMS_P1;PMS_P2;Temp;Humidity;BMP_temperature;BMP_pressure;BME280_temperature;BME280_humidity;BME280_pressure;Samples;Min_cycle;Max_cycle;Signal;HPM_P1;HPM_P2
2022/06/29 00:01:16;;;;;;;0.30;0.30;;;21.50;99.90;;;;;;5035690;28;20228;-84
2022/06/29 00:03:42;;;;;;;0.23;0.23;;;21.50;99.90;;;;;;5033467;28;20281;-84
2022/06/29 00:06:07;;;;;;;0.30;0.30;;;21.50;99.90;;;;;;5035690;28;20215;-84
2022/06/29 00:08:33;;;;;;;0.20;0.20;;;21.40;99.90;;;;;;5031969;28;20305;-84
2022/06/29 00:10:58;;;;;;;0.30;0.30;;;21.30;99.90;;;;;;5034334;28;20220;-84
2022/06/29 00:13:24;;;;;;;0.30;0.30;;;21.30;99.90;;;;;;5034332;28;20202;-85
2022/06/29 00:15:49;;;;;;;0.30;0.30;;;21.30;99.90;;;;;;5035234;28;20185;-84
2022/06/29 00:18:15;;;;;;;0.30;0.30;;;21.30;99.90;;;;;;5035617;28;20248;-85
2022/06/29 00:20:40;;;;;;;0.67;0.30;;;21.20;99.90;;;;;;5035156;28;20189;-85
2022/06/29 00:23:06;;;;;;;0.20;0.20;;;21.10;99.90;;;;;;5038498;28;20239;-84
2022/06/29 00:25:32;;;;;;;0.97;0.30;;;21.00;99.90;;;;;;5037626;28;20209;-85
2022/06/29 00:27:57;;;;;;;0.20;0.20;;;21.00;99.90;;;;;;5038937;28;20197;-84
2022/06/29 00:30:23;;;;;;;0.30;0.30;;;21.00;99.90;;;;;;5038757;28;20264;-83
2022/06/29 00:32:48;;;;;;;0.70;0.50;;;21.00;99.90;;;;;;5040384;28;20714;-85
2022/06/29 00:35:14;;;;;;;0.17;0.17;;;21.00;99.90;;;;;;5040138;28;20210;-85
2022/06/29 00:37:39;;;;;;;0.30;0.30;;;20.90;99.90;;;;;;5038915;28;20195;-86
2022/06/29 00:40:06;;;;;;;0.10;0.10;;;20.90;99.90;;;;;;5040596;28;20578;-84
2022/06/29 00:42:32;;;;;;;0.20;0.20;;;21.00;99.90;;;;;;5037255;28;20214;-83
2022/06/29 00:44:58;;;;;;;0.67;0.50;;;21.10;99.90;;;;;;5039461;28;20229;-84
2022/06/29 00:47:23;;;;;;;0.30;0.30;;;21.00;99.90;;;;;;5041206;28;20280;-84
2022/06/29 00:49:49;;;;;;;0.20;0.20;;;21.00;99.90;;;;;;5037909;28;20236;-84
2022/06/29 00:52:16;;;;;;;0.27;0.27;;;21.10;99.90;;;;;;5037602;28;20935;-84
2022/06/29 00:54:46;;;;;;;0.20;0.20;;;21.20;99.90;;;;;;5039038;28;20178;-84
2022/06/29 00:57:15;;;;;;;0.20;0.20;;;21.30;99.90;;;;;;5039577;28;20671;-85
2022/06/29 00:59:47;;;;;;;0.40;0.40;;;21.30;99.90;;;;;;5037148;28;20206;-84
2022/06/29 01:02:17;;;;;;;0.27;0.27;;;21.30;99.90;;;;;;5038124;28;20315;-83
2022/06/29 01:04:44;;;;;;;0.37;0.30;;;21.30;99.90;;;;;;5060946;28;20248;-84
2022/06/29 01:07:13;;;;;;;0.30;0.30;;;21.40;99.90;;;;;;5038848;28;20201;-84
2022/06/29 01:09:38;;;;;;;0.17;0.17;;;21.30;99.90;;;;;;5037245;28;20223;-85
2022/06/29 01:12:05;;;;;;;0.43;0.40;;;21.20;99.90;;;;;;5039421;28;20183;-84
2022/06/29 01:14:30;;;;;;;0.33;0.33;;;21.10;99.90;;;;;;5038061;28;20261;-84
2022/06/29 01:16:56;;;;;;;0.27;0.27;;;21.00;99.90;;;;;;5038593;28;20182;-85
2022/06/29 01:19:22;;;;;;;0.37;0.37;;;21.00;99.90;;;;;;5037591;28;20212;-84
2022/06/29 01:21:51;;;;;;;0.30;0.30;;;21.10;99.90;;;;;;5044515;28;20681;-84
2022/06/29 01:24:17;;;;;;;0.40;0.40;;;21.00;99.90;;;;;;5045886;28;20235;-85
2022/06/29 01:26:42;;;;;;;0.57;0.30;;;21.00;99.90;;;;;;5037830;28;20195;-84
2022/06/29 01:29:09;;;;;;;0.30;0.30;;;21.00;99.90;;;;;;5037201;28;20210;-84
2022/06/29 01:31:35;;;;;;;0.33;0.33;;;21.00;99.90;;;;;;5035670;28;20409;-84
2022/06/29 01:34:01;;;;;;;0.10;0.10;;;21.00;99.90;;;;;;5036898;28;20255;-84
2022/06/29 01:36:26;;;;;;;0.30;0.30;;;21.00;99.90;;;;;;5036639;28;20221;-85
2022/06/29 01:38:52;;;;;;;0.47;0.40;;;20.90;99.90;;;;;;5059720;28;20245;-84
2022/06/29 01:41:18;;;;;;;0.30;0.30;;;20.90;99.90;;;;;;5037976;28;20252;-84
2022/06/29 01:43:43;;;;;;;0.50;0.43;;;20.90;99.90;;;;;;5037644;28;20264;-84
2022/06/29 01:46:09;;;;;;;0.30;0.30;;;20.90;99.90;;;;;;5039580;28;20189;-84
2022/06/29 01:48:34;;;;;;;0.10;0.10;;;20.80;99.90;;;;;;5044593;28;20225;-85
2022/06/29 01:51:00;;;;;;;0.33;0.30;;;20.80;99.90;;;;;;5039102;28;20193;-83
2022/06/29 01:53:26;;;;;;;0.20;0.20;;;20.90;99.90;;;;;;5037609;28;20558;-84
2022/06/29 01:55:51;;;;;;;1.13;0.27;;;20.80;99.90;;;;;;5037762;28;20183;-83
2022/06/29 01:58:18;;;;;;;0.20;0.20;;;20.90;99.90;;;;;;5038356;28;20204;-84
2022/06/29 02:00:44;;;;;;;0.40;0.40;;;20.80;99.90;;;;;;5037090;28;20507;-84
2022/06/29 02:03:09;;;;;;;0.20;0.20;;;20.90;99.90;;;;;;5035378;28;20186;-83
2022/06/29 02:05:36;;;;;;;0.40;0.40;;;21.00;99.90;;;;;;5035457;28;20929;-84
2022/06/29 02:08:01;;;;;;;0.37;0.37;;;21.00;99.90;;;;;;5035625;28;20230;-83
2022/06/29 02:10:27;;;;;;;0.30;0.30;;;21.00;99.90;;;;;;5038874;28;20635;-84
2022/06/29 02:12:53;;;;;;;0.27;0.27;;;20.90;99.90;;;;;;5059775;28;20190;-84
2022/06/29 02:15:18;;;;;;;0.20;0.20;;;20.80;99.90;;;;;;5036655;28;20189;-85
2022/06/29 02:17:44;;;;;;;1.17;0.40;;;20.70;99.90;;;;;;5037533;28;20187;-84
2022/06/29 02:20:11;;;;;;;0.20;0.20;;;20.60;99.90;;;;;;5036080;28;20206;-84
2022/06/29 02:22:37;;;;;;;0.20;0.20;;;20.60;99.90;;;;;;5036467;28;20715;-85
2022/06/29 02:25:03;;;;;;;0.50;0.50;;;20.50;99.90;;;;;;5036159;28;20281;-84
2022/06/29 02:27:28;;;;;;;0.30;0.30;;;20.60;99.90;;;;;;5036489;28;20191;-84
2022/06/29 02:29:54;;;;;;;0.60;0.60;;;20.60;99.90;;;;;;5035823;28;20221;-83
2022/06/29 02:35:04;;;;;;;0.53;0.40;;;20.40;99.90;;;;;;5037282;28;20610;-84
2022/06/29 02:37:29;;;;;;;0.20;0.20;;;20.40;99.90;;;;;;5034437;28;20210;-85
2022/06/29 02:39:55;;;;;;;0.50;0.50;;;20.30;99.90;;;;;;5035848;28;20239;-85
2022/06/29 02:42:21;;;;;;;0.47;0.47;;;20.30;99.90;;;;;;5034229;28;20659;-84
2022/06/29 02:44:46;;;;;;;0.40;0.40;;;20.30;99.90;;;;;;5032204;28;20281;-84
2022/06/29 02:47:13;;;;;;;0.67;0.67;;;20.30;99.90;;;;;;5036074;28;20178;-84
2022/06/29 02:49:38;;;;;;;0.33;0.33;;;20.30;99.90;;;;;;5036086;28;20213;-84
2022/06/29 02:52:04;;;;;;;0.20;0.20;;;20.30;99.90;;;;;;5035008;28;20185;-84
2022/06/29 02:54:30;;;;;;;0.27;0.27;;;20.30;99.90;;;;;;5036073;28;20188;-84
2022/06/29 02:56:55;;;;;;;0.17;0.17;;;20.30;99.90;;;;;;5034486;28;20213;-84
2022/06/29 02:59:22;;;;;;;0.30;0.30;;;20.30;99.90;;;;;;5057238;28;20210;-85
2022/06/29 03:01:48;;;;;;;0.40;0.40;;;20.30;99.90;;;;;;5034538;28;20189;-84
2022/06/29 03:04:14;;;;;;;0.20;0.20;;;20.30;99.90;;;;;;5036378;28;20185;-84
2022/06/29 03:06:40;;;;;;;1.10;0.60;;;20.40;99.90;;;;;;5035931;28;20643;-85
2022/06/29 03:09:05;;;;;;;0.50;0.50;;;20.40;99.90;;;;;;5034837;28;20209;-85
2022/06/29 03:11:31;;;;;;;0.27;0.27;;;20.50;99.90;;;;;;5032955;28;20192;-84
2022/06/29 03:13:57;;;;;;;0.60;0.60;;;20.50;99.90;;;;;;5041997;28;20217;-84
2022/06/29 03:16:23;;;;;;;0.30;0.30;;;20.40;99.90;;;;;;5034338;28;20216;-83
2022/06/29 03:18:50;;;;;;;0.43;0.40;;;20.40;99.90;;;;;;5036182;28;20697;-84
2022/06/29 03:21:16;;;;;;;0.60;0.60;;;20.50;99.90;;;;;;5035175;28;20193;-83
2022/06/29 03:23:42;;;;;;;0.63;0.40;;;20.40;99.90;;;;;;5035062;28;20205;-84
2022/06/29 03:26:08;;;;;;;0.70;0.50;;;20.50;99.90;;;;;;5037128;28;20749;-85
2022/06/29 03:28:34;;;;;;;0.40;0.40;;;20.40;99.90;;;;;;5034732;28;20231;-85
2022/06/29 03:30:59;;;;;;;0.30;0.30;;;20.40;99.90;;;;;;5034610;28;20660;-84
2022/06/29 03:33:25;;;;;;;1.60;1.50;;;20.30;99.90;;;;;;5035197;28;20199;-84
2022/06/29 03:35:50;;;;;;;0.30;0.23;;;20.30;99.90;;;;;;5033496;28;20516;-85
2022/06/29 03:38:16;;;;;;;0.20;0.20;;;20.30;99.90;;;;;;5035437;28;20201;-84
2022/06/29 03:40:41;;;;;;;0.27;0.27;;;20.20;99.90;;;;;;5034978;28;20227;-85
2022/06/29 03:43:07;;;;;;;0.20;0.20;;;20.20;99.90;;;;;;5034329;28;20246;-85
2022/06/29 03:45:33;;;;;;;0.30;0.30;;;20.20;99.90;;;;;;5037095;28;20580;-85
2022/06/29 03:47:58;;;;;;;0.30;0.30;;;20.20;99.90;;;;;;5033948;28;20792;-83
2022/06/29 03:50:24;;;;;;;0.40;0.40;;;20.20;99.90;;;;;;5034640;28;21126;-84
2022/06/29 03:52:49;;;;;;;0.50;0.50;;;20.30;99.90;;;;;;5036178;28;20194;-84
2022/06/29 03:55:15;;;;;;;0.20;0.20;;;20.40;99.90;;;;;;5035034;28;20182;-84
2022/06/29 03:57:41;;;;;;;0.30;0.30;;;20.40;99.90;;;;;;5040810;28;20174;-84
2022/06/29 04:00:09;;;;;;;0.77;0.63;;;20.30;99.90;;;;;;5040235;28;20732;-84
2022/06/29 04:02:35;;;;;;;0.47;0.40;;;20.40;99.90;;;;;;5046242;28;20197;-84
2022/06/29 04:05:02;;;;;;;0.20;0.20;;;20.40;99.90;;;;;;5037732;28;20561;-84
2022/06/29 04:07:28;;;;;;;0.40;0.40;;;20.50;99.90;;;;;;5036997;28;20182;-85
2022/06/29 04:09:59;;;;;;;0.30;0.30;;;20.70;99.90;;;;;;5038511;28;20212;-84
2022/06/29 04:12:27;;;;;;;0.30;0.30;;;20.60;99.90;;;;;;5039472;28;20196;-84
2022/06/29 04:14:52;;;;;;;0.50;0.50;;;20.60;99.90;;;;;;5037599;28;20877;-84
2022/06/29 04:17:18;;;;;;;0.67;0.67;;;20.70;99.90;;;;;;5039303;28;20277;-84
2022/06/29 04:19:43;;;;;;;0.60;0.60;;;20.80;99.90;;;;;;5039270;28;20215;-84
2022/06/29 04:22:09;;;;;;;0.60;0.50;;;20.90;99.90;;;;;;5037604;28;20278;-84
2022/06/29 04:24:34;;;;;;;0.30;0.30;;;20.90;99.90;;;;;;5044415;28;20182;-84
2022/06/29 04:27:00;;;;;;;0.30;0.30;;;20.80;99.90;;;;;;5037910;28;20927;-84
2022/06/29 04:29:25;;;;;;;0.37;0.37;;;20.70;99.90;;;;;;5038641;28;20272;-84
2022/06/29 04:31:51;;;;;;;0.23;0.23;;;20.80;99.90;;;;;;5038244;28;20192;-84
2022/06/29 04:34:16;;;;;;;0.40;0.40;;;21.00;99.90;;;;;;5039235;28;20182;-84
2022/06/29 04:36:42;;;;;;;0.20;0.20;;;21.20;99.90;;;;;;5037902;28;20179;-83
2022/06/29 04:39:07;;;;;;;0.30;0.30;;;21.40;99.90;;;;;;5040161;28;20260;-84
2022/06/29 04:41:33;;;;;;;0.20;0.20;;;21.60;99.90;;;;;;5039325;28;20182;-84
2022/06/29 04:43:58;;;;;;;0.40;0.40;;;21.80;99.90;;;;;;5037318;28;20285;-83
2022/06/29 04:46:24;;;;;;;0.60;0.50;;;21.90;99.90;;;;;;5037204;28;20739;-84
2022/06/29 04:48:55;;;;;;;0.10;0.10;;;22.00;99.90;;;;;;5036597;28;20201;-84
2022/06/29 04:51:21;;;;;;;0.33;0.33;;;22.20;99.90;;;;;;5037319;28;20202;-84
2022/06/29 04:53:47;;;;;;;0.43;0.40;;;22.30;99.90;;;;;;5039295;28;20699;-85
2022/06/29 04:56:14;;;;;;;0.60;0.60;;;22.30;99.90;;;;;;5037893;28;20277;-84
2022/06/29 04:58:40;;;;;;;0.63;0.63;;;22.00;99.90;;;;;;5037132;28;20202;-83
2022/06/29 05:01:06;;;;;;;0.30;0.30;;;21.80;99.90;;;;;;5036274;28;20194;-83
2022/06/29 05:03:31;;;;;;;0.57;0.40;;;21.70;99.90;;;;;;5044913;28;20193;-84
2022/06/29 05:05:57;;;;;;;0.50;0.50;;;21.60;99.90;;;;;;5037129;28;20227;-84
2022/06/29 05:08:22;;;;;;;0.40;0.40;;;21.40;99.90;;;;;;5038566;28;20198;-84
2022/06/29 05:10:48;;;;;;;0.20;0.20;;;21.30;99.90;;;;;;5035597;28;20620;-85
2022/06/29 05:13:13;;;;;;;0.40;0.40;;;21.50;99.90;;;;;;5037239;28;20611;-84
2022/06/29 05:15:39;;;;;;;1.20;0.50;;;21.70;99.90;;;;;;5037667;28;20177;-84
2022/06/29 05:18:05;;;;;;;0.50;0.50;;;21.80;99.90;;;;;;5038738;28;20192;-85
2022/06/29 05:20:31;;;;;;;0.30;0.30;;;21.70;99.90;;;;;;5037500;28;20194;-84
2022/06/29 05:22:57;;;;;;;0.60;0.60;;;21.50;99.90;;;;;;5035603;28;20187;-84
2022/06/29 05:25:23;;;;;;;0.73;0.73;;;21.40;99.90;;;;;;5044012;28;20739;-84
2022/06/29 05:27:48;;;;;;;0.40;0.40;;;21.50;99.90;;;;;;5036779;28;20182;-85
2022/06/29 05:30:15;;;;;;;0.93;0.93;;;21.50;99.90;;;;;;5038196;28;20709;-84
2022/06/29 05:32:41;;;;;;;0.60;0.60;;;21.60;99.90;;;;;;5034809;28;20182;-83
2022/06/29 05:35:08;;;;;;;0.93;0.93;;;21.70;99.90;;;;;;5037602;28;20178;-82
2022/06/29 05:37:33;;;;;;;0.67;0.50;;;21.90;99.90;;;;;;5035541;28;20238;-82
2022/06/29 05:39:59;;;;;;;0.40;0.40;;;22.10;99.90;;;;;;5034162;28;20229;-82
2022/06/29 05:42:25;;;;;;;0.57;0.57;;;22.10;99.90;;;;;;5033539;28;20192;-82
2022/06/29 05:44:51;;;;;;;0.40;0.40;;;22.40;99.90;;;;;;5033450;28;20198;-82
2022/06/29 05:47:17;;;;;;;0.60;0.60;;;22.50;99.90;;;;;;5035909;28;20218;-82
2022/06/29 05:49:43;;;;;;;0.87;0.87;;;22.60;99.90;;;;;;5036240;28;20214;-82
2022/06/29 05:52:09;;;;;;;0.60;0.60;;;22.60;99.90;;;;;;5056812;28;20558;-81
2022/06/29 05:54:35;;;;;;;0.60;0.60;;;22.60;99.90;;;;;;5037655;28;20551;-83
2022/06/29 05:57:01;;;;;;;0.50;0.50;;;22.70;99.90;;;;;;5035688;28;20188;-83
2022/06/29 05:59:26;;;;;;;1.63;0.60;;;22.80;99.90;;;;;;5043220;28;20213;-83
2022/06/29 06:01:52;;;;;;;0.30;0.30;;;23.00;99.90;;;;;;5031395;28;20888;-82
2022/06/29 06:04:17;;;;;;;0.53;0.53;;;23.10;99.90;;;;;;5034437;28;20230;-82
2022/06/29 06:06:43;;;;;;;0.87;0.60;;;23.30;99.90;;;;;;5058778;28;20193;-82
2022/06/29 06:09:09;;;;;;;1.17;0.80;;;23.40;99.90;;;;;;5038362;28;20295;-82
2022/06/29 06:11:35;;;;;;;0.70;0.70;;;23.20;99.90;;;;;;5038921;28;20196;-83
2022/06/29 06:14:01;;;;;;;0.73;0.73;;;23.30;99.90;;;;;;5038476;28;20173;-83
2022/06/29 06:16:26;;;;;;;1.27;0.87;;;23.40;99.90;;;;;;5037667;28;20186;-83
2022/06/29 06:18:52;;;;;;;0.70;0.70;;;23.50;99.90;;;;;;5038980;28;20206;-83
2022/06/29 06:21:18;;;;;;;0.70;0.70;;;23.40;99.90;;;;;;5038473;28;20195;-83
2022/06/29 06:23:43;;;;;;;1.13;0.70;;;23.30;99.90;;;;;;5036278;28;20193;-83
2022/06/29 06:26:09;;;;;;;0.60;0.60;;;23.20;99.90;;;;;;5038023;28;20284;-82
2022/06/29 06:28:34;;;;;;;2.93;0.80;;;23.50;99.90;;;;;;5037036;28;20216;-83
2022/06/29 06:31:00;;;;;;;1.13;0.77;;;23.40;99.90;;;;;;5037245;28;20655;-83
2022/06/29 06:33:26;;;;;;;0.87;0.80;;;23.20;99.90;;;;;;5039225;28;20181;-83
2022/06/29 06:35:52;;;;;;;0.83;0.80;;;23.30;99.90;;;;;;5040323;28;20190;-83
2022/06/29 06:38:18;;;;;;;2.20;0.50;;;23.30;99.90;;;;;;5040725;28;20206;-82
2022/06/29 06:43:27;;;;;;;4.00;0.67;;;23.40;99.90;;;;;;5038683;28;20252;-82
2022/06/29 06:45:53;;;;;;;1.00;1.00;;;23.80;99.90;;;;;;5036538;28;20182;-83
2022/06/29 06:48:19;;;;;;;0.53;0.53;;;23.60;99.90;;;;;;5037921;28;20764;-83
2022/06/29 06:50:44;;;;;;;4.43;0.63;;;23.40;99.90;;;;;;5038716;28;20213;-83
2022/06/29 06:53:10;;;;;;;0.77;0.40;;;23.60;99.90;;;;;;5038656;28;20720;-83
2022/06/29 06:55:35;;;;;;;1.97;0.77;;;23.90;99.90;;;;;;5036945;28;20189;-83
2022/06/29 06:58:04;;;;;;;0.90;0.60;;;23.70;99.90;;;;;;5036958;28;20182;-83
2022/06/29 07:00:30;;;;;;;1.60;0.87;;;23.60;99.90;;;;;;5041468;28;20265;-83
2022/06/29 07:02:56;;;;;;;0.70;0.70;;;23.50;99.90;;;;;;5038497;28;20186;-83
2022/06/29 07:05:21;;;;;;;0.60;0.60;;;23.50;99.90;;;;;;5037144;28;20180;-82
2022/06/29 07:07:47;;;;;;;0.57;0.57;;;23.60;99.90;;;;;;5042183;28;20663;-83
2022/06/29 07:10:13;;;;;;;3.07;0.67;;;23.80;99.90;;;;;;5038078;28;20206;-82
2022/06/29 07:12:38;;;;;;;1.07;0.90;;;24.00;99.90;;;;;;5038300;28;20272;-83
2022/06/29 07:15:05;;;;;;;0.70;0.70;;;24.30;99.90;;;;;;5035440;28;20622;-83
2022/06/29 07:17:30;;;;;;;1.63;0.90;;;24.00;99.90;;;;;;5034845;28;20289;-83
2022/06/29 07:19:56;;;;;;;1.17;0.83;;;24.10;99.90;;;;;;5037032;28;20305;-82
2022/06/29 07:22:22;;;;;;;0.97;0.97;;;24.10;99.90;;;;;;5037357;28;20523;-83
2022/06/29 07:24:47;;;;;;;1.07;0.97;;;24.50;99.90;;;;;;5038028;28;20875;-83
2022/06/29 07:27:13;;;;;;;0.87;0.70;;;24.60;99.90;;;;;;5036370;28;20234;-82
2022/06/29 07:29:39;;;;;;;0.93;0.80;;;24.50;99.90;;;;;;5036347;28;20229;-83
2022/06/29 07:32:05;;;;;;;1.20;1.03;;;24.40;99.90;;;;;;5035418;28;20186;-84
2022/06/29 07:34:30;;;;;;;0.73;0.73;;;24.50;99.90;;;;;;5035666;28;20228;-82
2022/06/29 07:36:56;;;;;;;0.80;0.80;;;25.00;99.90;;;;;;5037528;28;20182;-84
2022/06/29 07:39:21;;;;;;;1.37;1.07;;;25.10;99.90;;;;;;5033515;28;20202;-84
2022/06/29 07:41:47;;;;;;;1.40;0.80;;;25.40;99.90;;;;;;5041957;28;20695;-83
2022/06/29 07:44:12;;;;;;;1.80;1.00;;;25.30;99.90;;;;;;5031007;28;20224;-84
2022/06/29 07:46:38;;;;;;;0.73;0.73;;;25.20;99.90;;;;;;5032278;28;20227;-85
2022/06/29 07:49:03;;;;;;;1.17;1.07;;;25.10;99.90;;;;;;5030525;28;20302;-84
2022/06/29 07:51:29;;;;;;;2.10;0.50;;;24.70;99.90;;;;;;5032664;28;21698;-84
2022/06/29 07:53:55;;;;;;;2.40;2.20;;;25.20;99.90;;;;;;5032177;28;20507;-83
2022/06/29 07:56:20;;;;;;;2.10;1.57;;;25.50;99.90;;;;;;5034961;28;20269;-84
2022/06/29 07:58:46;;;;;;;1.07;1.00;;;25.20;99.90;;;;;;5032078;28;20269;-84
2022/06/29 08:01:12;;;;;;;1.90;1.03;;;25.50;99.90;;;;;;5034159;28;20198;-83
2022/06/29 08:03:37;;;;;;;0.67;0.60;;;25.70;99.90;;;;;;5032393;28;21002;-85
2022/06/29 08:06:05;;;;;;;0.83;0.83;;;25.70;99.90;;;;;;5033283;28;20546;-84
2022/06/29 08:08:31;;;;;;;1.10;1.00;;;25.90;99.90;;;;;;5035483;28;20235;-83
2022/06/29 08:10:57;;;;;;;1.17;1.07;;;25.90;99.90;;;;;;5035855;28;20186;-83
2022/06/29 08:13:23;;;;;;;1.40;1.30;;;25.90;99.90;;;;;;5035829;28;20239;-83
2022/06/29 08:15:50;;;;;;;1.83;1.50;;;25.20;99.90;;;;;;5035794;28;20209;-83
2022/06/29 08:18:16;;;;;;;1.17;1.07;;;25.50;99.90;;;;;;5041065;28;20252;-85
2022/06/29 08:20:43;;;;;;;1.33;1.20;;;26.10;99.90;;;;;;5034989;28;20186;-83
2022/06/29 08:23:09;;;;;;;1.53;1.37;;;26.10;99.90;;;;;;5034867;28;20185;-84
2022/06/29 08:25:35;;;;;;;1.03;0.93;;;26.60;99.90;;;;;;5033570;28;20255;-84
2022/06/29 08:28:05;;;;;;;0.50;0.50;;;27.20;99.90;;;;;;5035887;28;20182;-83
2022/06/29 08:30:31;;;;;;;2.53;0.90;;;27.30;99.90;;;;;;5042443;28;20194;-84
2022/06/29 08:32:57;;;;;;;1.13;0.90;;;27.00;99.90;;;;;;5035183;28;20543;-84
2022/06/29 08:35:22;;;;;;;1.10;0.97;;;27.50;99.90;;;;;;5033585;28;20736;-85
2022/06/29 08:37:48;;;;;;;2.50;0.90;;;26.80;99.90;;;;;;5030774;28;20179;-85
2022/06/29 08:40:16;;;;;;;0.80;0.80;;;26.80;99.90;;;;;;5033173;28;20206;-84
2022/06/29 08:42:43;;;;;;;0.90;0.90;;;27.60;99.90;;;;;;5036408;28;20182;-84
2022/06/29 08:45:10;;;;;;;1.17;1.07;;;28.20;99.90;;;;;;5039766;28;20208;-84
2022/06/29 08:47:37;;;;;;;1.75;1.05;;;28.70;99.90;;;;;;5037810;28;20193;-83
2022/06/29 08:50:07;;;;;;;0.80;0.80;;;28.80;99.90;;;;;;5059441;28;20679;-85
2022/06/29 08:52:35;;;;;;;1.38;1.00;;;28.60;99.90;;;;;;5034390;28;20178;-84
2022/06/29 08:55:03;;;;;;;3.70;1.10;;;28.10;99.90;;;;;;5035477;28;20185;-85
2022/06/29 08:57:29;;;;;;;1.13;1.05;;;27.60;99.90;;;;;;5042749;28;20180;-85
2022/06/29 08:59:56;;;;;;;1.73;1.52;;;27.80;99.90;;;;;;5035903;28;20214;-85
2022/06/29 09:02:22;;;;;;;1.10;1.00;;;28.00;99.90;;;;;;5035225;28;20648;-83
2022/06/29 09:04:48;;;;;;;1.33;1.25;;;28.80;99.90;;;;;;5035108;28;20186;-85
2022/06/29 09:07:13;;;;;;;1.02;1.02;;;29.20;99.90;;;;;;5034848;28;20253;-85
2022/06/29 09:10:02;;;;;;;0.52;0.52;;;30.00;99.90;;;;;;5031651;28;20218;-85
2022/06/29 09:12:29;;;;;;;2.17;1.05;;;30.50;99.90;;;;;;5035276;28;20279;-84
2022/06/29 09:14:55;;;;;;;1.23;1.13;;;30.40;99.90;;;;;;5035139;28;20277;-84
2022/06/29 09:17:21;;;;;;;0.95;0.82;;;29.80;99.90;;;;;;5035106;28;20241;-85
2022/06/29 09:19:48;;;;;;;1.30;1.23;;;30.20;99.90;;;;;;5036505;28;20210;-84
2022/06/29 09:22:14;;;;;;;1.17;1.05;;;30.40;99.90;;;;;;5043208;28;20190;-84
2022/06/29 09:24:40;;;;;;;1.42;1.35;;;30.70;99.90;;;;;;5035816;28;20204;-83
2022/06/29 09:27:08;;;;;;;1.35;1.08;;;30.80;99.90;;;;;;5036047;28;20193;-83
2022/06/29 09:29:39;;;;;;;0.60;0.60;;;30.70;99.90;;;;;;5033520;28;20257;-83
2022/06/29 09:32:08;;;;;;;1.90;1.75;;;30.20;99.90;;;;;;5032979;28;20189;-83
2022/06/29 09:34:52;;;;;;;1.45;1.35;;;29.50;99.90;;;;;;5033899;28;20201;-83
2022/06/29 09:37:22;;;;;;;1.23;1.13;;;29.50;99.90;;;;;;5038137;28;20198;-86
2022/06/29 09:39:53;;;;;;;0.98;0.98;;;29.60;99.90;;;;;;5035494;28;20206;-85
2022/06/29 09:42:26;;;;;;;0.73;0.73;;;29.10;99.90;;;;;;5040934;28;20200;-85
2022/06/29 09:44:53;;;;;;;0.93;0.93;;;29.40;99.90;;;;;;5034340;28;20284;-84
2022/06/29 09:47:20;;;;;;;1.10;1.10;;;29.00;99.90;;;;;;5036113;28;20186;-85
2022/06/29 09:49:54;;;;;;;1.60;1.25;;;29.20;99.90;;;;;;5034469;28;20317;-85
2022/06/29 09:52:20;;;;;;;1.80;1.58;;;29.10;99.90;;;;;;5035462;28;20519;-84
2022/06/29 09:54:50;;;;;;;0.90;0.90;;;29.70;99.90;;;;;;5034698;28;20198;-84
2022/06/29 09:57:19;;;;;;;1.55;0.90;;;30.20;99.90;;;;;;5033643;28;20190;-84
2022/06/29 10:02:39;;;;;;;0.90;0.90;;;30.00;99.90;;;;;;5033644;28;20240;-86
2022/06/29 10:05:11;;;;;;;1.30;1.20;;;30.00;99.90;;;;;;5033188;28;20280;-86
2022/06/29 10:07:47;;;;;;;1.30;1.10;;;29.00;99.90;;;;;;5040014;28;20265;-87
2022/06/29 10:10:15;;;;;;;2.33;1.45;;;28.90;99.90;;;;;;5034284;28;20236;-87
2022/06/29 10:16:00;;;;;;;1.30;1.20;;;28.50;99.90;;;;;;5034508;28;21156;-87
2022/06/29 10:19:00;;;;;;;2.63;1.70;;;28.80;99.90;;;;;;5056797;28;20258;-85
2022/06/29 10:21:28;;;;;;;1.30;1.20;;;29.00;99.90;;;;;;5054979;28;20200;-87
2022/06/29 10:23:55;;;;;;;2.33;1.35;;;28.90;99.90;;;;;;5040552;28;20190;-86
2022/06/29 10:26:28;;;;;;;1.60;1.10;;;29.80;99.90;;;;;;5034848;28;20178;-86
2022/06/29 10:28:54;;;;;;;1.15;0.95;;;30.10;99.90;;;;;;5055475;28;20217;-85
2022/06/29 10:34:33;;;;;;;1.88;1.25;;;30.20;99.90;;;;;;5035207;28;20251;-86
2022/06/29 10:37:02;;;;;;;1.83;1.73;;;29.00;99.90;;;;;;5055375;28;20186;-86
2022/06/29 10:39:49;;;;;;;0.75;0.75;;;28.50;99.90;;;;;;5034491;28;20268;-86
2022/06/29 10:45:17;;;;;;;2.28;1.80;;;29.20;99.90;;;;;;5033499;28;20635;-85
2022/06/29 10:47:52;;;;;;;1.30;1.20;;;28.90;99.90;;;;;;5034268;28;20276;-86
2022/06/29 10:50:19;;;;;;;1.13;1.10;;;28.70;99.90;;;;;;5035179;28;20898;-87
2022/06/29 10:52:54;;;;;;;1.50;1.40;;;27.90;99.90;;;;;;5034658;28;20210;-86
2022/06/29 10:55:20;;;;;;;1.42;1.33;;;28.30;99.90;;;;;;5033519;28;20214;-85
2022/06/29 10:57:46;;;;;;;0.90;0.90;;;28.90;99.90;;;;;;5032896;28;20189;-86
2022/06/29 11:00:22;;;;;;;1.38;0.93;;;29.00;99.90;;;;;;5034725;28;20271;-87
2022/06/29 11:02:48;;;;;;;1.95;1.63;;;29.40;99.90;;;;;;5036008;28;20188;-85
2022/06/29 11:05:13;;;;;;;1.45;1.13;;;29.60;99.90;;;;;;5029914;28;20217;-82
2022/06/29 11:13:27;;;;;;;1.15;1.15;;;30.20;99.90;;;;;;5034366;28;20271;-82
2022/06/29 11:15:55;;;;;;;1.13;1.08;;;30.00;99.90;;;;;;5036580;28;20235;-81
2022/06/29 11:18:23;;;;;;;1.75;1.20;;;30.00;99.90;;;;;;5036534;28;20212;-82
2022/06/29 11:20:50;;;;;;;0.68;0.68;;;29.80;99.90;;;;;;5036026;28;20240;-81
2022/06/29 11:23:21;;;;;;;1.40;1.30;;;29.80;99.90;;;;;;5033040;28;20190;-81
2022/06/29 11:25:49;;;;;;;0.98;0.98;;;29.70;99.90;;;;;;5034041;28;20174;-82
2022/06/29 11:28:19;;;;;;;1.40;1.20;;;29.60;99.90;;;;;;5036039;28;20181;-82
2022/06/29 11:31:06;;;;;;;2.00;1.27;;;29.60;99.90;;;;;;5036540;28;20205;-82
2022/06/29 11:33:37;;;;;;;1.70;1.42;;;29.80;99.90;;;;;;5037328;28;20170;-82
2022/06/29 11:36:11;;;;;;;1.83;1.63;;;30.30;99.90;;;;;;5035622;28;20180;-82
2022/06/29 11:38:39;;;;;;;1.25;1.10;;;30.20;99.90;;;;;;5034246;28;20208;-82
2022/06/29 11:41:12;;;;;;;2.90;1.10;;;30.20;99.90;;;;;;5035615;28;20202;-82
2022/06/29 11:43:38;;;;;;;3.22;1.30;;;30.30;99.90;;;;;;5032228;28;20200;-82
2022/06/29 11:46:04;;;;;;;1.02;1.02;;;30.30;99.90;;;;;;5035629;28;20283;-81
2022/06/29 11:48:31;;;;;;;1.02;1.02;;;30.30;99.90;;;;;;5034862;28;20604;-82
2022/06/29 11:51:01;;;;;;;1.48;1.38;;;30.30;99.90;;;;;;5034844;28;20202;-82
2022/06/29 11:53:54;;;;;;;1.33;1.23;;;30.40;99.90;;;;;;5034534;28;20249;-82
2022/06/29 11:56:27;;;;;;;2.53;0.82;;;30.60;99.90;;;;;;5034952;28;20522;-81
2022/06/29 11:58:56;;;;;;;0.70;0.60;;;30.90;99.90;;;;;;5034817;28;20209;-81
2022/06/29 12:01:23;;;;;;;1.55;1.45;;;31.10;99.90;;;;;;5032932;28;20213;-82
2022/06/29 12:03:54;;;;;;;1.10;1.10;;;31.50;99.90;;;;;;5032906;28;20190;-82
2022/06/29 12:06:22;;;;;;;1.00;1.00;;;31.30;99.90;;;;;;5033589;28;20261;-82
2022/06/29 12:08:49;;;;;;;0.73;0.73;;;31.90;99.90;;;;;;5033850;28;20284;-82
2022/06/29 12:11:15;;;;;;;2.63;2.45;;;31.80;99.90;;;;;;5035604;28;20177;-82
2022/06/29 12:13:42;;;;;;;5.40;1.63;;;32.20;99.90;;;;;;5031612;28;20178;-82
2022/06/29 12:16:08;;;;;;;1.17;1.10;;;32.30;99.90;;;;;;5034547;28;20182;-82
2022/06/29 12:18:34;;;;;;;1.50;1.40;;;32.40;99.90;;;;;;5036192;28;20229;-82
2022/06/29 12:21:00;;;;;;;1.25;1.13;;;32.70;99.90;;;;;;5038044;28;20213;-82
2022/06/29 12:23:25;;;;;;;2.85;1.50;;;32.90;99.90;;;;;;5044495;28;20198;-82
2022/06/29 12:25:51;;;;;;;1.17;0.90;;;32.90;99.90;;;;;;5037574;28;20174;-82
2022/06/29 12:28:16;;;;;;;2.17;1.20;;;32.50;99.90;;;;;;5037391;28;20225;-81
2022/06/29 12:30:42;;;;;;;0.82;0.70;;;31.10;99.90;;;;;;5036659;28;20206;-82
2022/06/29 12:33:09;;;;;;;1.15;0.98;;;30.50;99.90;;;;;;5038243;28;20411;-82
2022/06/29 12:35:36;;;;;;;0.60;0.60;;;30.80;99.90;;;;;;5045709;28;20685;-82
2022/06/29 12:38:01;;;;;;;0.80;0.80;;;31.30;99.90;;;;;;5044160;28;20177;-82
2022/06/29 12:40:29;;;;;;;1.08;1.08;;;29.70;99.90;;;;;;5039550;28;20391;-82
2022/06/29 12:42:55;;;;;;;1.27;1.17;;;30.10;99.90;;;;;;5038504;28;20193;-82
2022/06/29 12:45:21;;;;;;;1.33;1.20;;;29.30;99.90;;;;;;5036767;28;20604;-82
2022/06/29 12:47:46;;;;;;;1.60;1.25;;;29.60;99.90;;;;;;5036837;28;20186;-82
2022/06/29 12:50:12;;;;;;;2.13;2.03;;;29.80;99.90;;;;;;5038824;28;20214;-81
2022/06/29 12:52:40;;;;;;;1.38;1.23;;;28.50;99.90;;;;;;5036923;28;20436;-82
2022/06/29 12:55:09;;;;;;;1.88;0.98;;;28.40;99.90;;;;;;5044435;28;21096;-82
2022/06/29 12:57:35;;;;;;;1.00;1.00;;;28.30;99.90;;;;;;5038120;28;20201;-81
2022/06/29 13:00:01;;;;;;;1.15;1.05;;;28.80;99.90;;;;;;5059619;28;20245;-82
2022/06/29 13:02:27;;;;;;;0.93;0.93;;;28.70;99.90;;;;;;5038979;28;20242;-82
2022/06/29 13:04:52;;;;;;;1.23;1.13;;;28.20;99.90;;;;;;5038196;28;20200;-81
2022/06/29 13:07:18;;;;;;;3.67;1.20;;;28.40;99.90;;;;;;5036152;28;20184;-82
2022/06/29 13:09:43;;;;;;;3.28;1.75;;;28.50;99.90;;;;;;5038901;28;20245;-82